sensor_id;sensor_type;location;lat;lon;timestamp;P1;durP1;ratioP1;P2;durP2;ratioP2
32964;SDS011;19317;48.226;11.686;2024-03-25T00:02:24;2.40;;;2.20;;
32964;SDS011;19317;48.226;11.686;2024-03-25T00:07:15;2.50;;;2.30;;
32964;SDS011;19317;48.226;11.686;2024-03-25T00:12:06;2.57;;;2.30;;
32964;SDS011;19317;48.226;11.686;2024-03-25T00:16:57;3.20;;;2.30;;
32964;SDS011;19317;48.226;11.686;2024-03-25T00:21:48;2.93;;;2.63;;
32964;SDS011;19317;48.226;11.686;2024-03-25T00:26:39;2.73;;;2.40;;
32964;SDS011;19317;48.226;11.686;2024-03-25T00:31:30;3.57;;;2.30;;
32964;SDS011;19317;48.226;11.686;2024-03-25T00:36:21;2.07;;;1.90;;
32964;SDS011;19317;48.226;11.686;2024-03-25T00:41:12;3.57;;;2.53;;
32964;SDS011;19317;48.226;11.686;2024-03-25T00:46:02;2.63;;;2.23;;
32964;SDS011;19317;48.226;11.686;2024-03-25T00:50:53;2.30;;;2.10;;
32964;SDS011;19317;48.226;11.686;2024-03-25T00:55:44;2.77;;;2.23;;
32964;SDS011;19317;48.226;11.686;2024-03-25T01:00:35;2.97;;;2.33;;
32964;SDS011;19317;48.226;11.686;2024-03-25T01:05:26;2.83;;;2.63;;
32964;SDS011;19317;48.226;11.686;2024-03-25T01:10:17;2.50;;;2.30;;
32964;SDS011;19317;48.226;11.686;2024-03-25T01:15:08;4.40;;;2.50;;
32964;SDS011;19317;48.226;11.686;2024-03-25T01:19:59;3.50;;;2.00;;
32964;SDS011;19317;48.226;11.686;2024-03-25T01:24:50;3.07;;;2.63;;
32964;SDS011;19317;48.226;11.686;2024-03-25T01:29:41;2.40;;;2.20;;
32964;SDS011;19317;48.226;11.686;2024-03-25T01:34:31;2.40;;;2.20;;
32964;SDS011;19317;48.226;11.686;2024-03-25T01:39:22;3.20;;;2.00;;
32964;SDS011;19317;48.226;11.686;2024-03-25T01:44:13;2.53;;;2.30;;
32964;SDS011;19317;48.226;11.686;2024-03-25T01:49:04;2.97;;;2.47;;
32964;SDS011;19317;48.226;11.686;2024-03-25T01:53:55;2.50;;;2.30;;
32964;SDS011;19317;48.226;11.686;2024-03-25T01:58:46;2.40;;;2.20;;
32964;SDS011;19317;48.226;11.686;2024-03-25T02:03:37;2.37;;;2.17;;
32964;SDS011;19317;48.226;11.686;2024-03-25T02:08:28;2.13;;;2.00;;
32964;SDS011;19317;48.226;11.686;2024-03-25T02:13:20;2.33;;;2.13;;
32964;SDS011;19317;48.226;11.686;2024-03-25T02:18:11;2.57;;;2.37;;
32964;SDS011;19317;48.226;11.686;2024-03-25T02:23:02;2.80;;;2.50;;
32964;SDS011;19317;48.226;11.686;2024-03-25T02:27:53;3.20;;;2.50;;
32964;SDS011;19317;48.226;11.686;2024-03-25T02:32:44;4.53;;;2.70;;
32964;SDS011;19317;48.226;11.686;2024-03-25T02:37:35;2.53;;;2.33;;
32964;SDS011;19317;48.226;11.686;2024-03-25T02:42:26;2.57;;;2.37;;
32964;SDS011;19317;48.226;11.686;2024-03-25T02:47:16;2.47;;;2.27;;
32964;SDS011;19317;48.226;11.686;2024-03-25T02:52:07;2.43;;;2.23;;
32964;SDS011;19317;48.226;11.686;2024-03-25T02:56:58;2.50;;;2.30;;
32964;SDS011;19317;48.226;11.686;2024-03-25T03:01:49;2.30;;;2.20;;
32964;SDS011;19317;48.226;11.686;2024-03-25T03:06:40;3.03;;;2.70;;
32964;SDS011;19317;48.226;11.686;2024-03-25T03:11:31;3.37;;;3.07;;
32964;SDS011;19317;48.226;11.686;2024-03-25T03:16:22;2.97;;;2.73;;
32964;SDS011;19317;48.226;11.686;2024-03-25T03:21:13;3.93;;;2.80;;
32964;SDS011;19317;48.226;11.686;2024-03-25T03:26:03;2.90;;;2.60;;
32964;SDS011;19317;48.226;11.686;2024-03-25T03:30:54;3.37;;;2.73;;
32964;SDS011;19317;48.226;11.686;2024-03-25T03:35:45;3.00;;;2.80;;
32964;SDS011;19317;48.226;11.686;2024-03-25T03:40:36;4.00;;;2.97;;
32964;SDS011;19317;48.226;11.686;2024-03-25T03:45:32;3.00;;;2.70;;
32964;SDS011;19317;48.226;11.686;2024-03-25T03:50:23;2.23;;;2.03;;
32964;SDS011;19317;48.226;11.686;2024-03-25T03:55:14;2.23;;;2.13;;
32964;SDS011;19317;48.226;11.686;2024-03-25T04:00:05;3.73;;;2.60;;
32964;SDS011;19317;48.226;11.686;2024-03-25T04:04:56;2.70;;;2.50;;
32964;SDS011;19317;48.226;11.686;2024-03-25T04:09:47;3.57;;;2.93;;
32964;SDS011;19317;48.226;11.686;2024-03-25T04:14:38;5.40;;;2.90;;
32964;SDS011;19317;48.226;11.686;2024-03-25T04:19:28;3.93;;;2.80;;
32964;SDS011;19317;48.226;11.686;2024-03-25T04:24:19;3.53;;;2.47;;
32964;SDS011;19317;48.226;11.686;2024-03-25T04:29:10;2.77;;;2.57;;
32964;SDS011;19317;48.226;11.686;2024-03-25T04:34:01;2.63;;;2.43;;
32964;SDS011;19317;48.226;11.686;2024-03-25T04:38:52;2.40;;;2.00;;
32964;SDS011;19317;48.226;11.686;2024-03-25T04:43:43;2.67;;;2.47;;
32964;SDS011;19317;48.226;11.686;2024-03-25T04:48:34;4.73;;;2.87;;
32964;SDS011;19317;48.226;11.686;2024-03-25T04:53:24;3.00;;;2.77;;
32964;SDS011;19317;48.226;11.686;2024-03-25T04:58:15;3.33;;;3.03;;
32964;SDS011;19317;48.226;11.686;2024-03-25T05:03:06;3.40;;;2.90;;
32964;SDS011;19317;48.226;11.686;2024-03-25T05:07:57;3.77;;;2.87;;
32964;SDS011;19317;48.226;11.686;2024-03-25T05:12:48;3.23;;;2.83;;
32964;SDS011;19317;48.226;11.686;2024-03-25T05:17:39;4.37;;;2.70;;
32964;SDS011;19317;48.226;11.686;2024-03-25T05:22:30;3.53;;;2.73;;
32964;SDS011;19317;48.226;11.686;2024-03-25T05:27:21;2.83;;;2.60;;
32964;SDS011;19317;48.226;11.686;2024-03-25T05:32:12;3.67;;;2.60;;
32964;SDS011;19317;48.226;11.686;2024-03-25T05:37:02;5.07;;;2.93;;
32964;SDS011;19317;48.226;11.686;2024-03-25T05:41:53;3.53;;;2.57;;
32964;SDS011;19317;48.226;11.686;2024-03-25T05:46:44;2.47;;;2.27;;
32964;SDS011;19317;48.226;11.686;2024-03-25T05:51:35;3.63;;;2.63;;
32964;SDS011;19317;48.226;11.686;2024-03-25T05:56:26;3.33;;;2.73;;
32964;SDS011;19317;48.226;11.686;2024-03-25T06:01:17;3.37;;;2.80;;
32964;SDS011;19317;48.226;11.686;2024-03-25T06:06:08;3.87;;;2.60;;
32964;SDS011;19317;48.226;11.686;2024-03-25T06:11:01;2.67;;;2.47;;
32964;SDS011;19317;48.226;11.686;2024-03-25T06:15:52;5.00;;;2.87;;
32964;SDS011;19317;48.226;11.686;2024-03-25T06:20:43;5.27;;;2.90;;
32964;SDS011;19317;48.226;11.686;2024-03-25T06:25:34;3.37;;;2.80;;
32964;SDS011;19317;48.226;11.686;2024-03-25T06:30:25;5.40;;;2.83;;
32964;SDS011;19317;48.226;11.686;2024-03-25T06:35:16;2.63;;;2.43;;
32964;SDS011;19317;48.226;11.686;2024-03-25T06:40:07;3.20;;;2.63;;
32964;SDS011;19317;48.226;11.686;2024-03-25T06:44:58;5.17;;;2.73;;
32964;SDS011;19317;48.226;11.686;2024-03-25T06:49:49;4.77;;;2.37;;
32964;SDS011;19317;48.226;11.686;2024-03-25T06:54:40;3.80;;;2.63;;
32964;SDS011;19317;48.226;11.686;2024-03-25T06:59:31;2.43;;;2.23;;
32964;SDS011;19317;48.226;11.686;2024-03-25T07:04:21;3.70;;;2.90;;
32964;SDS011;19317;48.226;11.686;2024-03-25T07:09:12;2.93;;;2.57;;
32964;SDS011;19317;48.226;11.686;2024-03-25T07:14:03;2.73;;;2.53;;
32964;SDS011;19317;48.226;11.686;2024-03-25T07:18:54;2.80;;;2.60;;
32964;SDS011;19317;48.226;11.686;2024-03-25T07:23:45;3.80;;;2.60;;
32964;SDS011;19317;48.226;11.686;2024-03-25T07:28:36;2.47;;;2.17;;
32964;SDS011;19317;48.226;11.686;2024-03-25T07:33:27;3.20;;;2.90;;
32964;SDS011;19317;48.226;11.686;2024-03-25T07:38:17;4.63;;;2.73;;
32964;SDS011;19317;48.226;11.686;2024-03-25T07:43:08;3.30;;;2.70;;
32964;SDS011;19317;48.226;11.686;2024-03-25T07:47:59;3.37;;;2.73;;
32964;SDS011;19317;48.226;11.686;2024-03-25T07:52:50;3.00;;;2.80;;
32964;SDS011;19317;48.226;11.686;2024-03-25T07:57:41;3.57;;;3.13;;
32964;SDS011;19317;48.226;11.686;2024-03-25T08:02:32;2.90;;;2.70;;
32964;SDS011;19317;48.226;11.686;2024-03-25T08:07:23;4.03;;;3.50;;
32964;SDS011;19317;48.226;11.686;2024-03-25T08:12:13;3.77;;;3.00;;
32964;SDS011;19317;48.226;11.686;2024-03-25T08:17:04;3.20;;;2.93;;
32964;SDS011;19317;48.226;11.686;2024-03-25T08:21:55;5.50;;;3.57;;
32964;SDS011;19317;48.226;11.686;2024-03-25T08:26:46;3.57;;;2.93;;
32964;SDS011;19317;48.226;11.686;2024-03-25T08:31:37;4.43;;;3.10;;
32964;SDS011;19317;48.226;11.686;2024-03-25T08:36:28;6.97;;;3.07;;
32964;SDS011;19317;48.226;11.686;2024-03-25T08:41:19;4.20;;;3.00;;
32964;SDS011;19317;48.226;11.686;2024-03-25T08:46:10;2.97;;;2.57;;
32964;SDS011;19317;48.226;11.686;2024-03-25T08:51:00;6.47;;;3.40;;
32964;SDS011;19317;48.226;11.686;2024-03-25T08:55:51;5.43;;;3.80;;
32964;SDS011;19317;48.226;11.686;2024-03-25T09:00:42;4.13;;;3.40;;
32964;SDS011;19317;48.226;11.686;2024-03-25T09:05:34;3.97;;;2.97;;
32964;SDS011;19317;48.226;11.686;2024-03-25T09:10:25;3.13;;;2.80;;
32964;SDS011;19317;48.226;11.686;2024-03-25T09:15:16;5.83;;;3.40;;
32964;SDS011;19317;48.226;11.686;2024-03-25T09:20:07;3.70;;;3.30;;
32964;SDS011;19317;48.226;11.686;2024-03-25T09:24:58;5.30;;;3.47;;
32964;SDS011;19317;48.226;11.686;2024-03-25T09:29:49;5.77;;;3.20;;
32964;SDS011;19317;48.226;11.686;2024-03-25T09:34:40;6.40;;;3.97;;
32964;SDS011;19317;48.226;11.686;2024-03-25T09:39:31;4.10;;;3.70;;
32964;SDS011;19317;48.226;11.686;2024-03-25T09:44:22;4.20;;;3.27;;
32964;SDS011;19317;48.226;11.686;2024-03-25T09:49:15;3.50;;;2.90;;
32964;SDS011;19317;48.226;11.686;2024-03-25T09:54:06;3.33;;;2.87;;
32964;SDS011;19317;48.226;11.686;2024-03-25T09:58:56;3.73;;;3.30;;
32964;SDS011;19317;48.226;11.686;2024-03-25T10:03:48;5.67;;;2.90;;
32964;SDS011;19317;48.226;11.686;2024-03-25T10:08:39;3.30;;;3.00;;
32964;SDS011;19317;48.226;11.686;2024-03-25T10:13:29;2.87;;;2.67;;
32964;SDS011;19317;48.226;11.686;2024-03-25T10:18:20;3.30;;;3.00;;
32964;SDS011;19317;48.226;11.686;2024-03-25T10:23:11;3.60;;;3.00;;
32964;SDS011;19317;48.226;11.686;2024-03-25T10:28:02;3.30;;;3.00;;
32964;SDS011;19317;48.226;11.686;2024-03-25T10:32:59;4.03;;;3.00;;
32964;SDS011;19317;48.226;11.686;2024-03-25T10:37:50;3.47;;;2.50;;
32964;SDS011;19317;48.226;11.686;2024-03-25T10:42:41;2.73;;;2.40;;
32964;SDS011;19317;48.226;11.686;2024-03-25T10:47:33;2.90;;;2.60;;
32964;SDS011;19317;48.226;11.686;2024-03-25T10:52:28;2.70;;;2.50;;
32964;SDS011;19317;48.226;11.686;2024-03-25T10:57:20;3.90;;;2.40;;
32964;SDS011;19317;48.226;11.686;2024-03-25T11:02:11;3.60;;;2.50;;
32964;SDS011;19317;48.226;11.686;2024-03-25T11:07:11;2.57;;;2.37;;
32964;SDS011;19317;48.226;11.686;2024-03-25T11:12:03;3.70;;;2.57;;
32964;SDS011;19317;48.226;11.686;2024-03-25T11:16:57;2.90;;;2.60;;
32964;SDS011;19317;48.226;11.686;2024-03-25T11:21:47;3.77;;;2.67;;
32964;SDS011;19317;48.226;11.686;2024-03-25T11:26:42;2.83;;;2.60;;
32964;SDS011;19317;48.226;11.686;2024-03-25T11:31:33;3.53;;;2.80;;
32964;SDS011;19317;48.226;11.686;2024-03-25T11:36:24;3.93;;;2.77;;
32964;SDS011;19317;48.226;11.686;2024-03-25T11:41:15;3.70;;;2.50;;
32964;SDS011;19317;48.226;11.686;2024-03-25T11:46:06;2.90;;;2.60;;
32964;SDS011;19317;48.226;11.686;2024-03-25T11:50:57;2.47;;;2.23;;
32964;SDS011;19317;48.226;11.686;2024-03-25T11:55:48;3.17;;;2.40;;
32964;SDS011;19317;48.226;11.686;2024-03-25T12:00:43;2.90;;;2.60;;
32964;SDS011;19317;48.226;11.686;2024-03-25T12:05:33;2.63;;;2.43;;
32964;SDS011;19317;48.226;11.686;2024-03-25T12:10:25;3.30;;;2.73;;
32964;SDS011;19317;48.226;11.686;2024-03-25T12:15:16;3.43;;;2.30;;
32964;SDS011;19317;48.226;11.686;2024-03-25T12:20:08;4.00;;;2.60;;
32964;SDS011;19317;48.226;11.686;2024-03-25T12:24:59;2.30;;;2.10;;
32964;SDS011;19317;48.226;11.686;2024-03-25T12:29:57;2.87;;;2.23;;
32964;SDS011;19317;48.226;11.686;2024-03-25T12:34:48;4.27;;;2.50;;
32964;SDS011;19317;48.226;11.686;2024-03-25T12:39:46;3.80;;;2.60;;
32964;SDS011;19317;48.226;11.686;2024-03-25T12:44:38;3.60;;;2.50;;
32964;SDS011;19317;48.226;11.686;2024-03-25T12:49:28;3.20;;;2.90;;
32964;SDS011;19317;48.226;11.686;2024-03-25T12:54:19;2.77;;;2.40;;
32964;SDS011;19317;48.226;11.686;2024-03-25T12:59:10;3.73;;;2.63;;
32964;SDS011;19317;48.226;11.686;2024-03-25T13:04:01;7.50;;;3.40;;
32964;SDS011;19317;48.226;11.686;2024-03-25T13:08:52;5.17;;;2.77;;
32964;SDS011;19317;48.226;11.686;2024-03-25T13:13:43;3.00;;;2.70;;
32964;SDS011;19317;48.226;11.686;2024-03-25T13:18:34;3.63;;;2.40;;
32964;SDS011;19317;48.226;11.686;2024-03-25T13:23:24;5.27;;;2.50;;
32964;SDS011;19317;48.226;11.686;2024-03-25T13:28:15;3.00;;;2.50;;
32964;SDS011;19317;48.226;11.686;2024-03-25T13:33:06;3.67;;;2.60;;
32964;SDS011;19317;48.226;11.686;2024-03-25T13:37:57;3.00;;;2.40;;
32964;SDS011;19317;48.226;11.686;2024-03-25T13:42:48;2.80;;;2.60;;
32964;SDS011;19317;48.226;11.686;2024-03-25T13:47:39;4.77;;;2.77;;
32964;SDS011;19317;48.226;11.686;2024-03-25T13:52:30;3.73;;;2.50;;
32964;SDS011;19317;48.226;11.686;2024-03-25T13:57:21;3.10;;;2.77;;
32964;SDS011;19317;48.226;11.686;2024-03-25T14:02:12;2.93;;;2.40;;
32964;SDS011;19317;48.226;11.686;2024-03-25T14:07:02;3.73;;;2.30;;
32964;SDS011;19317;48.226;11.686;2024-03-25T14:11:53;3.93;;;2.60;;
32964;SDS011;19317;48.226;11.686;2024-03-25T14:16:44;2.40;;;2.20;;
32964;SDS011;19317;48.226;11.686;2024-03-25T14:21:35;2.80;;;2.50;;
32964;SDS011;19317;48.226;11.686;2024-03-25T14:26:26;3.63;;;2.30;;
32964;SDS011;19317;48.226;11.686;2024-03-25T14:31:17;3.00;;;2.20;;
32964;SDS011;19317;48.226;11.686;2024-03-25T14:36:08;4.00;;;2.63;;
32964;SDS011;19317;48.226;11.686;2024-03-25T14:40:59;2.50;;;2.30;;
32964;SDS011;19317;48.226;11.686;2024-03-25T14:45:50;3.17;;;2.40;;
32964;SDS011;19317;48.226;11.686;2024-03-25T14:50:41;2.73;;;2.30;;
32964;SDS011;19317;48.226;11.686;2024-03-25T14:55:31;2.40;;;2.03;;
32964;SDS011;19317;48.226;11.686;2024-03-25T15:00:22;2.93;;;2.20;;
32964;SDS011;19317;48.226;11.686;2024-03-25T15:05:13;2.70;;;2.37;;
32964;SDS011;19317;48.226;11.686;2024-03-25T15:10:04;3.10;;;2.67;;
32964;SDS011;19317;48.226;11.686;2024-03-25T15:14:55;2.57;;;2.30;;
32964;SDS011;19317;48.226;11.686;2024-03-25T15:19:46;2.77;;;2.57;;
32964;SDS011;19317;48.226;11.686;2024-03-25T15:24:37;2.73;;;2.40;;
32964;SDS011;19317;48.226;11.686;2024-03-25T15:29:28;2.50;;;2.30;;
32964;SDS011;19317;48.226;11.686;2024-03-25T15:34:19;3.10;;;2.20;;
32964;SDS011;19317;48.226;11.686;2024-03-25T15:39:10;2.53;;;2.20;;
32964;SDS011;19317;48.226;11.686;2024-03-25T15:44:01;2.93;;;2.10;;
32964;SDS011;19317;48.226;11.686;2024-03-25T15:48:52;2.50;;;2.10;;
32964;SDS011;19317;48.226;11.686;2024-03-25T15:53:43;2.97;;;2.37;;
32964;SDS011;19317;48.226;11.686;2024-03-25T15:58:34;2.50;;;2.30;;
32964;SDS011;19317;48.226;11.686;2024-03-25T16:03:25;2.63;;;2.20;;
32964;SDS011;19317;48.226;11.686;2024-03-25T16:08:16;2.77;;;2.33;;
32964;SDS011;19317;48.226;11.686;2024-03-25T16:13:06;2.40;;;2.20;;
32964;SDS011;19317;48.226;11.686;2024-03-25T16:17:58;2.37;;;2.10;;
32964;SDS011;19317;48.226;11.686;2024-03-25T16:22:49;3.93;;;2.40;;
32964;SDS011;19317;48.226;11.686;2024-03-25T16:27:40;2.40;;;2.20;;
32964;SDS011;19317;48.226;11.686;2024-03-25T16:32:32;3.60;;;2.50;;
32964;SDS011;19317;48.226;11.686;2024-03-25T16:37:23;2.77;;;2.33;;
32964;SDS011;19317;48.226;11.686;2024-03-25T16:42:14;2.97;;;2.30;;
32964;SDS011;19317;48.226;11.686;2024-03-25T16:47:04;3.60;;;2.60;;
32964;SDS011;19317;48.226;11.686;2024-03-25T16:51:55;2.60;;;2.40;;
32964;SDS011;19317;48.226;11.686;2024-03-25T16:56:46;2.57;;;2.37;;
32964;SDS011;19317;48.226;11.686;2024-03-25T17:01:37;3.70;;;2.40;;
32964;SDS011;19317;48.226;11.686;2024-03-25T17:06:28;4.73;;;2.57;;
32964;SDS011;19317;48.226;11.686;2024-03-25T17:11:19;2.87;;;2.57;;
32964;SDS011;19317;48.226;11.686;2024-03-25T17:16:10;4.07;;;2.20;;
32964;SDS011;19317;48.226;11.686;2024-03-25T17:21:01;2.60;;;2.30;;
32964;SDS011;19317;48.226;11.686;2024-03-25T17:25:52;2.60;;;2.40;;
32964;SDS011;19317;48.226;11.686;2024-03-25T17:30:43;3.00;;;2.70;;
32964;SDS011;19317;48.226;11.686;2024-03-25T17:35:34;4.47;;;2.60;;
32964;SDS011;19317;48.226;11.686;2024-03-25T17:40:24;2.80;;;2.43;;
32964;SDS011;19317;48.226;11.686;2024-03-25T17:45:15;3.00;;;2.70;;
32964;SDS011;19317;48.226;11.686;2024-03-25T17:50:06;4.20;;;2.80;;
32964;SDS011;19317;48.226;11.686;2024-03-25T17:54:57;2.97;;;2.63;;
32964;SDS011;19317;48.226;11.686;2024-03-25T17:59:48;4.53;;;2.60;;
32964;SDS011;19317;48.226;11.686;2024-03-25T18:04:39;4.30;;;2.43;;
32964;SDS011;19317;48.226;11.686;2024-03-25T18:09:30;5.47;;;2.53;;
32964;SDS011;19317;48.226;11.686;2024-03-25T18:14:21;3.63;;;3.10;;
32964;SDS011;19317;48.226;11.686;2024-03-25T18:19:12;2.97;;;2.60;;
32964;SDS011;19317;48.226;11.686;2024-03-25T18:24:03;3.67;;;2.77;;
32964;SDS011;19317;48.226;11.686;2024-03-25T18:28:54;4.17;;;2.80;;
32964;SDS011;19317;48.226;11.686;2024-03-25T18:33:44;4.20;;;2.87;;
32964;SDS011;19317;48.226;11.686;2024-03-25T18:38:35;2.83;;;2.60;;
32964;SDS011;19317;48.226;11.686;2024-03-25T18:43:26;4.80;;;2.70;;
32964;SDS011;19317;48.226;11.686;2024-03-25T18:48:17;4.37;;;3.27;;
32964;SDS011;19317;48.226;11.686;2024-03-25T18:53:08;4.13;;;3.33;;
32964;SDS011;19317;48.226;11.686;2024-03-25T18:57:59;4.43;;;3.00;;
32964;SDS011;19317;48.226;11.686;2024-03-25T19:02:50;3.23;;;2.70;;
32964;SDS011;19317;48.226;11.686;2024-03-25T19:07:41;5.13;;;2.93;;
32964;SDS011;19317;48.226;11.686;2024-03-25T19:12:31;4.07;;;3.00;;
32964;SDS011;19317;48.226;11.686;2024-03-25T19:17:22;4.57;;;3.33;;
32964;SDS011;19317;48.226;11.686;2024-03-25T19:22:13;3.70;;;3.10;;
32964;SDS011;19317;48.226;11.686;2024-03-25T19:27:04;3.83;;;2.90;;
32964;SDS011;19317;48.226;11.686;2024-03-25T19:31:55;6.00;;;3.00;;
32964;SDS011;19317;48.226;11.686;2024-03-25T19:36:46;3.40;;;2.83;;
32964;SDS011;19317;48.226;11.686;2024-03-25T19:41:37;3.43;;;3.13;;
32964;SDS011;19317;48.226;11.686;2024-03-25T19:46:28;4.50;;;3.20;;
32964;SDS011;19317;48.226;11.686;2024-03-25T19:51:19;4.50;;;3.20;;
32964;SDS011;19317;48.226;11.686;2024-03-25T19:56:09;5.00;;;3.27;;
32964;SDS011;19317;48.226;11.686;2024-03-25T20:01:07;3.43;;;3.13;;
32964;SDS011;19317;48.226;11.686;2024-03-25T20:05:58;4.53;;;3.33;;
32964;SDS011;19317;48.226;11.686;2024-03-25T20:10:49;4.07;;;2.97;;
32964;SDS011;19317;48.226;11.686;2024-03-25T20:15:42;3.67;;;3.07;;
32964;SDS011;19317;48.226;11.686;2024-03-25T20:20:33;5.20;;;3.47;;
32964;SDS011;19317;48.226;11.686;2024-03-25T20:25:24;3.63;;;3.27;;
32964;SDS011;19317;48.226;11.686;2024-03-25T20:30:14;3.60;;;3.30;;
32964;SDS011;19317;48.226;11.686;2024-03-25T20:35:05;3.30;;;3.00;;
32964;SDS011;19317;48.226;11.686;2024-03-25T20:39:56;3.13;;;2.73;;
32964;SDS011;19317;48.226;11.686;2024-03-25T20:44:47;3.80;;;3.37;;
32964;SDS011;19317;48.226;11.686;2024-03-25T20:49:38;3.83;;;3.03;;
32964;SDS011;19317;48.226;11.686;2024-03-25T20:54:29;3.03;;;2.80;;
32964;SDS011;19317;48.226;11.686;2024-03-25T20:59:20;5.83;;;3.20;;
32964;SDS011;19317;48.226;11.686;2024-03-25T21:04:11;3.57;;;3.27;;
32964;SDS011;19317;48.226;11.686;2024-03-25T21:09:02;3.87;;;2.90;;
32964;SDS011;19317;48.226;11.686;2024-03-25T21:13:52;3.80;;;3.03;;
32964;SDS011;19317;48.226;11.686;2024-03-25T21:18:43;3.53;;;3.20;;
32964;SDS011;19317;48.226;11.686;2024-03-25T21:23:34;4.17;;;3.20;;
32964;SDS011;19317;48.226;11.686;2024-03-25T21:28:25;5.07;;;3.00;;
32964;SDS011;19317;48.226;11.686;2024-03-25T21:33:16;6.30;;;3.40;;
32964;SDS011;19317;48.226;11.686;2024-03-25T21:38:07;4.63;;;3.00;;
32964;SDS011;19317;48.226;11.686;2024-03-25T21:42:58;3.60;;;3.10;;
32964;SDS011;19317;48.226;11.686;2024-03-25T21:47:49;5.17;;;3.27;;
32964;SDS011;19317;48.226;11.686;2024-03-25T21:52:39;3.77;;;2.97;;
32964;SDS011;19317;48.226;11.686;2024-03-25T21:57:30;3.30;;;3.00;;
32964;SDS011;19317;48.226;11.686;2024-03-25T22:02:21;4.90;;;3.17;;
32964;SDS011;19317;48.226;11.686;2024-03-25T22:07:12;4.23;;;3.07;;
32964;SDS011;19317;48.226;11.686;2024-03-25T22:12:03;4.70;;;3.03;;
32964;SDS011;19317;48.226;11.686;2024-03-25T22:16:54;3.83;;;2.93;;
32964;SDS011;19317;48.226;11.686;2024-03-25T22:21:45;4.57;;;3.30;;
32964;SDS011;19317;48.226;11.686;2024-03-25T22:26:36;4.10;;;3.20;;
32964;SDS011;19317;48.226;11.686;2024-03-25T22:31:27;3.90;;;3.50;;
32964;SDS011;19317;48.226;11.686;2024-03-25T22:36:17;4.77;;;3.30;;
32964;SDS011;19317;48.226;11.686;2024-03-25T22:41:08;4.03;;;3.30;;
32964;SDS011;19317;48.226;11.686;2024-03-25T22:46:00;3.73;;;3.00;;
32964;SDS011;19317;48.226;11.686;2024-03-25T22:50:58;4.67;;;3.80;;
32964;SDS011;19317;48.226;11.686;2024-03-25T22:56:02;3.73;;;3.20;;
32964;SDS011;19317;48.226;11.686;2024-03-25T23:00:54;4.93;;;3.30;;
32964;SDS011;19317;48.226;11.686;2024-03-25T23:05:54;4.67;;;3.50;;
32964;SDS011;19317;48.226;11.686;2024-03-25T23:10:45;3.57;;;3.13;;
32964;SDS011;19317;48.226;11.686;2024-03-25T23:15:36;5.20;;;3.17;;
32964;SDS011;19317;48.226;11.686;2024-03-25T23:20:27;3.90;;;3.50;;
32964;SDS011;19317;48.226;11.686;2024-03-25T23:25:18;3.90;;;3.50;;
32964;SDS011;19317;48.226;11.686;2024-03-25T23:30:09;4.10;;;3.70;;
32964;SDS011;19317;48.226;11.686;2024-03-25T23:35:00;3.50;;;3.20;;
32964;SDS011;19317;48.226;11.686;2024-03-25T23:39:50;4.60;;;3.30;;
32964;SDS011;19317;48.226;11.686;2024-03-25T23:44:41;4.73;;;3.33;;
32964;SDS011;19317;48.226;11.686;2024-03-25T23:49:32;4.77;;;3.30;;
32964;SDS011;19317;48.226;11.686;2024-03-25T23:54:23;3.67;;;3.30;;
32964;SDS011;19317;48.226;11.686;2024-03-25T23:59:14;4.80;;;3.10;;
